Time;durP1;ratioP1;P1;durP2;ratioP2;P2;SDS_P1;SDS_P2;PMS_P1;PMS_P2;Temp;Humidity;BMP_temperature;BMP_pressure;BME280_temperature;BME280_humidity;BME280_pressure;Samples;Min_cycle;Max_cycle;Signal;HPM_P1;HPM_P2
2022/12/17 13:06:47;;;;;;;408.98;142.38;;;;;;;-2.45;100.00;102524.88;5094581;28;20043;-47
2022/12/17 13:09:15;;;;;;;420.33;145.80;;;;;;;-2.52;100.00;102529.97;5094444;28;20057;-44
2022/12/17 13:11:42;;;;;;;411.05;138.73;;;;;;;-2.55;100.00;102529.66;5094302;28;20036;-45
2022/12/17 13:14:33;;;;;;;418.45;142.18;;;;;;;-2.50;100.00;102533.56;5094058;28;20093;-47
2022/12/17 13:17:03;;;;;;;409.10;140.10;;;;;;;-2.66;100.00;102541.97;5094405;28;20063;-44
2022/12/17 13:19:38;;;;;;;397.00;130.32;;;;;;;-2.78;100.00;102535.56;5093504;28;20031;-44
2022/12/17 13:22:10;;;;;;;404.17;132.85;;;;;;;-2.90;100.00;102540.16;5093600;28;20123;-44
2022/12/17 13:24:35;;;;;;;411.10;138.98;;;;;;;-2.94;100.00;102547.22;5093935;28;20107;-45
2022/12/17 13:27:02;;;;;;;440.80;155.00;;;;;;;-2.93;100.00;102533.88;5094343;28;20095;-44
2022/12/17 13:29:31;;;;;;;463.25;154.55;;;;;;;-2.94;100.00;102542.16;5093312;28;20020;-46
2022/12/17 13:31:59;;;;;;;430.58;140.30;;;;;;;-2.99;100.00;102527.41;5094020;28;20517;-44
2022/12/17 13:34:43;;;;;;;433.85;140.65;;;;;;;-2.93;100.00;102523.78;5094281;28;20024;-45
2022/12/17 13:37:38;;;;;;;263.27;50.65;;;;;;;-2.86;100.00;102524.63;5094117;28;20032;-43
2022/12/17 13:40:35;;;;;;;439.40;140.82;;;;;;;-2.92;100.00;102520.53;5093994;28;20056;-44
2022/12/17 13:43:01;;;;;;;;;;;;;;;-2.82;100.00;102523.34;5093436;28;20039;-47
2022/12/17 13:45:27;;;;;;;451.70;144.73;;;;;;;-2.88;100.00;102525.19;5093597;28;19912;-44
2022/12/17 13:47:57;;;;;;;449.10;146.75;;;;;;;-2.94;100.00;102530.47;5093431;28;20025;-44
2022/12/17 13:50:26;;;;;;;448.65;139.95;;;;;;;-2.99;100.00;102532.47;5092903;28;20635;-43
2022/12/17 13:52:52;;;;;;;243.18;41.05;;;;;;;-2.87;100.00;102530.41;5093539;28;20099;-45
2022/12/17 13:55:24;;;;;;;405.98;130.82;;;;;;;-3.07;100.00;102529.81;5093823;28;20020;-44
2022/12/17 13:57:51;;;;;;;218.90;41.85;;;;;;;-2.98;100.00;102531.75;5092729;28;20100;-44
2022/12/17 14:00:23;;;;;;;278.48;54.88;;;;;;;-3.03;100.00;102537.03;5093250;28;20429;-43
2022/12/17 14:02:49;;;;;;;480.60;160.75;;;;;;;-3.26;100.00;102532.81;5092654;28;20028;-48
2022/12/17 14:05:36;;;;;;;442.05;141.90;;;;;;;-3.31;100.00;102534.78;5092960;28;20024;-44
2022/12/17 14:08:04;;;;;;;475.13;148.07;;;;;;;-3.33;100.00;102536.28;5093531;28;20099;-44
2022/12/17 14:10:31;;;;;;;485.15;151.07;;;;;;;-3.38;100.00;102532.31;5092769;28;20062;-44
2022/12/17 14:13:15;;;;;;;500.92;158.63;;;;;;;-3.32;100.00;102533.03;5093030;28;20020;-44
2022/12/17 14:15:49;;;;;;;488.58;149.48;;;;;;;-3.39;100.00;102527.13;5092819;28;20036;-44
2022/12/17 14:18:17;;;;;;;295.17;50.78;;;;;;;-3.31;100.00;102524.72;5092696;28;20032;-45
2022/12/17 14:20:43;;;;;;;276.80;53.10;;;;;;;-3.29;100.00;102536.59;5093066;28;20028;-47
2022/12/17 14:23:23;;;;;;;488.83;156.25;;;;;;;-3.43;100.00;102537.56;5093163;28;20489;-45
2022/12/17 14:25:48;;;;;;;488.15;148.05;;;;;;;-3.50;100.00;102551.09;5091997;28;20085;-47
2022/12/17 14:28:33;;;;;;;475.95;150.52;;;;;;;-3.49;100.00;102548.75;5096468;28;20032;-47
2022/12/17 14:31:06;;;;;;;492.73;151.63;;;;;;;-3.51;100.00;102544.25;5112959;28;20024;-45
2022/12/17 14:33:34;;;;;;;492.23;152.60;;;;;;;-3.51;100.00;102546.78;5112679;28;20416;-43
2022/12/17 14:36:04;;;;;;;498.65;154.50;;;;;;;-3.56;100.00;102550.44;5113375;28;20073;-46
2022/12/17 14:38:29;;;;;;;277.58;50.05;;;;;;;-3.45;100.00;102544.94;5112681;28;20089;-44
2022/12/17 14:42:23;;;;;;;501.35;154.20;;;;;;;-3.52;100.00;102545.88;5112852;28;20459;-45
2022/12/17 14:43:54;;;;;;;516.13;157.88;;;;;;;-3.54;100.00;102554.00;5112795;28;20487;-45
2022/12/17 14:46:21;;;;;;;513.10;158.18;;;;;;;-3.56;100.00;102552.94;5112538;28;20027;-44
2022/12/17 14:48:59;;;;;;;521.65;160.70;;;;;;;-3.56;100.00;102545.38;5112897;28;20024;-43
2022/12/17 14:51:42;;;;;;;520.78;161.48;;;;;;;-3.55;100.00;102548.06;5113067;28;20523;-44
2022/12/17 14:54:24;;;;;;;317.42;66.95;;;;;;;-3.47;100.00;102554.88;5112353;28;20035;-46
2022/12/17 14:56:51;;;;;;;601.35;246.73;;;;;;;-3.54;100.00;102551.47;5112894;28;20031;-44
2022/12/17 14:59:36;;;;;;;659.10;305.73;;;;;;;-3.47;100.00;102567.47;5112480;28;20031;-44
2022/12/17 15:02:08;;;;;;;543.97;184.20;;;;;;;-3.53;100.00;102555.81;5112728;28;20048;-47
2022/12/17 15:04:35;;;;;;;550.08;203.98;;;;;;;-3.58;100.00;102565.34;5112519;28;20390;-45
2022/12/17 15:07:01;;;;;;;507.80;154.73;;;;;;;-3.64;100.00;102568.06;5112472;28;20032;-44
2022/12/17 15:09:26;;;;;;;532.42;202.35;;;;;;;-3.65;100.00;102566.28;5112983;28;20032;-44
2022/12/17 15:11:52;;;;;;;496.00;148.27;;;;;;;-3.71;100.00;102573.13;5112662;28;20046;-44
2022/12/17 15:14:17;;;;;;;524.33;161.70;;;;;;;-3.78;100.00;102570.63;5112452;28;20076;-48
2022/12/17 15:16:42;;;;;;;504.25;155.38;;;;;;;-3.81;100.00;102577.81;5112793;28;20028;-46
2022/12/17 15:19:08;;;;;;;497.73;154.68;;;;;;;-3.83;100.00;102574.25;5112985;28;20020;-46
2022/12/17 15:21:33;;;;;;;370.88;92.90;;;;;;;-3.73;100.00;102591.31;5111846;28;20024;-44
2022/12/17 15:23:59;;;;;;;587.53;241.45;;;;;;;-3.85;100.00;102588.28;5112794;28;20081;-44
2022/12/17 15:26:24;;;;;;;335.25;73.30;;;;;;;-3.77;100.00;102594.19;5112722;28;20043;-44
2022/12/17 15:28:49;;;;;;;525.92;175.40;;;;;;;-3.83;100.00;102595.28;5111635;28;20458;-47
2022/12/17 15:31:14;;;;;;;544.10;193.38;;;;;;;-3.81;100.00;102597.97;5112976;28;20066;-43
2022/12/17 15:33:40;;;;;;;551.65;190.73;;;;;;;-3.83;100.00;102604.47;5112634;28;20011;-44
2022/12/17 15:36:07;;;;;;;545.50;191.23;;;;;;;-3.86;100.00;102599.06;5111816;28;20475;-45
2022/12/17 15:38:32;;;;;;;699.50;317.30;;;;;;;-3.84;100.00;102602.69;5112425;28;20024;-44
2022/12/17 15:43:48;;;;;;;521.88;180.18;;;;;;;-3.90;100.00;102604.47;5116302;28;20474;-45
2022/12/17 15:46:13;;;;;;;641.35;309.55;;;;;;;-3.93;100.00;102604.13;5116532;28;20038;-43
2022/12/17 15:48:39;;;;;;;505.50;154.77;;;;;;;-3.97;100.00;102601.25;5115736;28;20028;-47
2022/12/17 15:51:04;;;;;;;503.35;156.35;;;;;;;-3.98;100.00;102617.09;5116252;28;20028;-46
2022/12/17 15:53:29;;;;;;;508.42;149.25;;;;;;;-4.00;100.00;102616.00;5116282;28;20019;-44
2022/12/17 15:55:59;;;;;;;262.58;46.60;;;;;;;-3.94;100.00;102612.41;5115506;28;20072;-46
2022/12/17 15:58:24;;;;;;;520.53;148.50;;;;;;;-4.10;100.00;102610.63;5116173;28;20482;-44
2022/12/17 16:00:49;;;;;;;280.50;54.60;;;;;;;-4.04;100.00;102613.88;5115880;28;20048;-44
2022/12/17 16:03:15;;;;;;;549.08;163.07;;;;;;;-4.19;100.00;102612.94;5115434;28;20098;-44
2022/12/17 16:05:40;;;;;;;309.73;58.55;;;;;;;-4.11;100.00;102616.38;5115698;28;20035;-45
2022/12/17 16:08:06;;;;;;;557.08;160.27;;;;;;;-4.21;100.00;102614.41;5115988;28;20024;-46
2022/12/17 16:10:31;;;;;;;523.63;157.40;;;;;;;-4.27;100.00;102617.81;5114913;28;20420;-44
2022/12/17 16:12:57;;;;;;;522.92;147.65;;;;;;;-4.27;100.00;102627.88;5116247;28;20106;-43
2022/12/17 16:15:22;;;;;;;564.30;171.45;;;;;;;-4.33;100.00;102628.94;5116292;28;20035;-45
2022/12/17 16:17:47;;;;;;;613.85;216.25;;;;;;;-4.37;100.00;102624.28;5114782;28;20027;-43
2022/12/17 16:20:13;;;;;;;599.38;207.35;;;;;;;-4.42;100.00;102622.84;5115887;28;20160;-44
2022/12/17 16:22:38;;;;;;;621.17;192.00;;;;;;;-4.45;100.00;102625.00;5115607;28;20027;-44
2022/12/17 16:25:04;;;;;;;664.08;224.00;;;;;;;-4.44;100.00;102618.34;5115127;28;20053;-47
2022/12/17 16:27:29;;;;;;;313.70;58.25;;;;;;;-4.37;100.00;102621.75;5116033;28;20032;-46
2022/12/17 16:29:54;;;;;;;577.13;165.50;;;;;;;-4.51;100.00;102626.78;5115377;28;20049;-46
2022/12/17 16:32:19;;;;;;;616.85;182.88;;;;;;;-4.51;100.00;102626.78;5114983;28;20163;-43
2022/12/17 16:34:45;;;;;;;595.30;170.23;;;;;;;-4.51;100.00;102629.28;5115369;28;20054;-44
2022/12/17 16:37:11;;;;;;;592.60;174.73;;;;;;;-4.52;100.00;102624.97;5115417;28;20034;-43
2022/12/17 16:39:36;;;;;;;570.58;168.48;;;;;;;-4.54;100.00;102622.28;5114347;28;20020;-43
2022/12/17 16:42:02;;;;;;;577.30;166.23;;;;;;;-4.57;100.00;102626.03;5115393;28;20039;-43
2022/12/17 16:44:27;;;;;;;597.10;169.13;;;;;;;-4.56;100.00;102620.31;5115430;28;20024;-43
2022/12/17 16:46:52;;;;;;;583.28;167.35;;;;;;;-4.56;100.00;102623.72;5114416;28;20028;-43
2022/12/17 16:49:22;;;;;;;288.52;52.53;;;;;;;-4.48;100.00;102622.09;5115316;28;20035;-45
2022/12/17 16:51:50;;;;;;;307.25;50.92;;;;;;;-4.46;100.00;102625.72;5114433;28;20107;-45
2022/12/17 16:54:17;;;;;;;613.15;198.90;;;;;;;-4.45;100.00;102627.50;5113917;28;20101;-42
2022/12/17 16:56:44;;;;;;;;;;;;;;;-4.37;100.00;102636.88;5115486;28;20039;-44
2022/12/17 16:59:11;;;;;;;585.30;185.75;;;;;;;-4.33;100.00;102631.47;5114368;28;19916;-43
2022/12/17 17:01:38;;;;;;;297.43;51.37;;;;;;;-4.26;100.00;102628.09;5114519;28;20556;-45
2022/12/17 17:04:05;;;;;;;597.25;171.10;;;;;;;-4.31;100.00;102632.56;5114991;28;20032;-47
2022/12/17 17:06:30;;;;;;;325.35;61.92;;;;;;;-4.22;100.00;102626.78;5114093;28;20042;-43
2022/12/17 17:08:56;;;;;;;529.65;153.00;;;;;;;-4.33;100.00;102625.53;5114844;28;20024;-44
2022/12/17 17:11:23;;;;;;;578.10;204.20;;;;;;;-4.34;100.00;102632.22;5114826;28;20015;-43
2022/12/17 17:13:51;;;;;;;338.02;58.72;;;;;;;-4.27;100.00;102628.78;5113844;28;20032;-44
2022/12/17 17:16:18;;;;;;;605.05;209.23;;;;;;;-4.37;100.00;102631.81;5115104;28;20028;-44
2022/12/17 17:18:43;;;;;;;618.35;197.50;;;;;;;-4.36;100.00;102628.59;5114510;28;20024;-45
2022/12/17 17:21:17;;;;;;;595.35;196.73;;;;;;;-4.40;100.00;102631.47;5113900;28;20031;-43
2022/12/17 17:23:44;;;;;;;308.15;54.92;;;;;;;-4.33;100.00;102636.50;5114522;28;20028;-43
2022/12/17 17:26:10;;;;;;;301.27;50.00;;;;;;;-4.32;100.00;102634.91;5114626;28;20100;-43
2022/12/17 17:28:35;;;;;;;569.55;174.15;;;;;;;-4.49;100.00;102635.44;5113590;28;20482;-43
2022/12/17 17:31:03;;;;;;;574.00;167.10;;;;;;;-4.46;100.00;102638.28;5114577;28;20034;-45
2022/12/17 17:33:29;;;;;;;252.15;42.47;;;;;;;-4.40;100.00;102656.66;5114365;28;20360;-43
2022/12/17 17:36:05;;;;;;;538.13;145.60;;;;;;;-4.59;100.00;102657.69;5113585;28;20031;-44
2022/12/17 17:38:35;;;;;;;280.38;54.08;;;;;;;-4.52;100.00;102653.56;5114155;28;20028;-43
2022/12/17 17:41:01;;;;;;;536.30;147.48;;;;;;;-4.68;100.00;102660.88;5113968;28;20032;-43
2022/12/17 17:43:27;;;;;;;572.10;180.02;;;;;;;-4.76;100.00;102658.16;5114211;28;20055;-42
2022/12/17 17:45:52;;;;;;;571.67;162.75;;;;;;;-4.85;100.00;102658.88;5113686;28;20119;-43
2022/12/17 17:48:18;;;;;;;526.35;141.38;;;;;;;-4.85;100.00;102663.00;5113336;28;20039;-44
2022/12/17 17:50:55;;;;;;;273.55;49.42;;;;;;;-4.81;100.00;102663.53;5114052;28;20459;-43
2022/12/17 17:53:20;;;;;;;537.75;147.57;;;;;;;-4.92;100.00;102655.44;5113379;28;20027;-43
2022/12/17 17:55:45;;;;;;;543.33;154.00;;;;;;;-4.91;100.00;102652.19;5111999;28;20052;-44
2022/12/17 17:58:10;;;;;;;567.78;154.27;;;;;;;-4.91;100.00;102652.19;5113100;28;20031;-44
2022/12/17 18:00:36;;;;;;;603.25;160.63;;;;;;;-4.92;100.00;102652.91;5112762;28;20052;-46
2022/12/17 18:03:01;;;;;;;219.02;44.55;;;;;;;-4.81;100.00;102660.16;5112520;28;20474;-43
2022/12/17 18:05:27;;;;;;;291.23;50.38;;;;;;;-4.80;100.00;102656.91;5112974;28;20031;-44
2022/12/17 18:07:52;;;;;;;251.55;48.05;;;;;;;-4.78;100.00;102657.97;5112789;28;20031;-44
2022/12/17 18:10:17;;;;;;;545.80;154.75;;;;;;;-4.83;100.00;102651.50;5112492;28;20019;-47
2022/12/17 18:15:26;;;;;;;576.28;153.88;;;;;;;-4.89;100.00;102660.81;5113480;28;20504;-46
2022/12/17 18:17:51;;;;;;;244.82;45.50;;;;;;;-4.82;100.00;102663.38;5111870;28;20028;-44
2022/12/17 18:20:17;;;;;;;568.03;160.55;;;;;;;-4.92;100.00;102665.47;5112932;28;20031;-44
2022/12/17 18:22:44;;;;;;;570.95;162.95;;;;;;;-4.87;100.00;102667.81;5112674;28;20038;-44
2022/12/17 18:25:10;;;;;;;270.70;46.87;;;;;;;-4.78;100.00;102668.03;5111970;28;20099;-47
2022/12/17 18:27:35;;;;;;;259.55;44.08;;;;;;;-4.73;100.00;102678.69;5112419;28;20095;-48
2022/12/17 18:30:00;;;;;;;568.95;155.50;;;;;;;-4.84;100.00;102669.81;5112679;28;20481;-46
2022/12/17 18:32:26;;;;;;;563.72;158.48;;;;;;;-4.82;100.00;102668.41;5112256;28;20455;-47
2022/12/17 18:34:51;;;;;;;245.27;44.08;;;;;;;-4.71;100.00;102672.19;5112386;28;20072;-44
2022/12/17 18:37:16;;;;;;;541.63;147.20;;;;;;;-4.90;100.00;102664.06;5111979;28;20027;-46
2022/12/17 18:39:42;;;;;;;546.58;151.65;;;;;;;-4.97;100.00;102655.78;5112372;28;20027;-44
2022/12/17 18:44:51;;;;;;;564.45;156.40;;;;;;;-4.99;100.00;102661.34;5111485;28;20082;-45
2022/12/17 18:47:17;;;;;;;581.55;154.38;;;;;;;-5.06;100.00;102662.22;5112767;28;20051;-47
2022/12/17 18:49:43;;;;;;;546.25;141.38;;;;;;;-5.23;100.00;102671.81;5112346;28;20060;-45
2022/12/17 18:52:09;;;;;;;558.30;148.80;;;;;;;-5.30;100.00;102671.06;5111495;28;20428;-46
2022/12/17 18:54:34;;;;;;;552.25;146.63;;;;;;;-5.36;100.00;102660.28;5112055;28;20034;-48
2022/12/17 18:57:00;;;;;;;560.13;150.15;;;;;;;-5.35;100.00;102663.69;5111981;28;20023;-46
2022/12/17 18:59:27;;;;;;;259.63;47.80;;;;;;;-5.26;100.00;102666.44;5111902;28;20065;-48
2022/12/17 19:01:54;;;;;;;285.35;48.40;;;;;;;-5.26;100.00;102663.91;5111934;28;20042;-47
2022/12/17 19:04:20;;;;;;;607.42;156.25;;;;;;;-5.34;100.00;102660.47;5112449;28;20032;-43
2022/12/17 19:06:48;;;;;;;244.40;46.65;;;;;;;-5.28;100.00;102671.28;5111424;28;20028;-44
2022/12/17 19:09:26;;;;;;;566.97;161.90;;;;;;;-5.35;100.00;102672.09;5112066;28;20459;-44
2022/12/17 19:11:53;;;;;;;587.92;166.48;;;;;;;-5.33;100.00;102664.78;5111844;28;20440;-44
2022/12/17 19:14:20;;;;;;;590.53;159.80;;;;;;;-5.34;100.00;102668.00;5111575;28;20458;-43
2022/12/17 19:16:46;;;;;;;224.40;42.72;;;;;;;-5.24;100.00;102675.94;5112865;28;20038;-45
2022/12/17 19:19:12;;;;;;;274.73;47.08;;;;;;;-5.20;100.00;102687.25;5116242;28;20140;-44
2022/12/17 19:21:37;;;;;;;287.33;51.53;;;;;;;-5.19;100.00;102684.03;5115358;28;20475;-44
2022/12/17 19:24:05;;;;;;;618.33;166.98;;;;;;;-5.22;100.00;102688.69;5116084;28;20031;-45
2022/12/17 19:26:31;;;;;;;300.80;54.38;;;;;;;-5.18;100.00;102695.91;5115573;28;20024;-45
2022/12/17 19:28:58;;;;;;;638.08;156.95;;;;;;;-5.33;100.00;102690.78;5116275;28;20031;-45
2022/12/17 19:31:28;;;;;;;587.35;154.13;;;;;;;-5.35;100.00;102693.84;5116328;28;20073;-47
2022/12/17 19:34:04;;;;;;;250.13;47.83;;;;;;;-5.29;100.00;102690.47;5114973;28;20052;-43
2022/12/17 19:36:32;;;;;;;550.35;155.55;;;;;;;-5.38;100.00;102701.91;5116121;28;20020;-43
2022/12/17 19:38:59;;;;;;;623.97;206.02;;;;;;;-5.39;100.00;102696.69;5116055;28;20028;-45
2022/12/17 19:41:26;;;;;;;588.22;176.73;;;;;;;-5.41;100.00;102699.03;5115477;28;20023;-47
2022/12/17 19:43:54;;;;;;;290.73;60.33;;;;;;;-5.33;100.00;102698.34;5115498;28;20039;-42
2022/12/17 19:46:19;;;;;;;567.30;161.65;;;;;;;-5.36;100.00;102699.56;5115891;28;20031;-48
2022/12/17 19:48:46;;;;;;;580.58;148.80;;;;;;;-5.49;100.00;102693.03;5114727;28;20026;-47
2022/12/17 19:51:14;;;;;;;234.30;45.43;;;;;;;-5.40;100.00;102698.28;5115608;28;20043;-47
2022/12/17 19:53:42;;;;;;;249.63;43.35;;;;;;;-5.43;100.00;102699.53;5115743;28;20110;-46
2022/12/17 19:56:11;;;;;;;497.67;138.05;;;;;;;-5.57;100.00;102703.72;5114909;28;20020;-47
2022/12/17 19:58:39;;;;;;;232.43;51.45;;;;;;;-5.51;100.00;102708.63;5115471;28;20027;-44
2022/12/17 20:01:09;;;;;;;214.68;42.63;;;;;;;-5.56;100.00;102705.53;5115261;28;20046;-47
2022/12/17 20:03:36;;;;;;;487.25;139.35;;;;;;;-5.64;100.00;102704.59;5114452;28;20020;-46
2022/12/17 20:06:01;;;;;;;196.70;46.88;;;;;;;-5.58;100.00;102716.13;5115402;28;20110;-48
2022/12/17 20:08:27;;;;;;;482.38;139.35;;;;;;;-5.67;100.00;102716.78;5115653;28;20052;-48
2022/12/17 20:10:52;;;;;;;504.25;147.55;;;;;;;-5.70;100.00;102726.44;5114327;28;20027;-46
2022/12/17 20:13:17;;;;;;;524.55;147.38;;;;;;;-5.70;100.00;102726.44;5115472;28;20449;-47
2022/12/17 20:15:43;;;;;;;550.53;161.13;;;;;;;-5.68;100.00;102724.09;5114205;28;20027;-47
2022/12/17 20:18:08;;;;;;;217.88;43.58;;;;;;;-5.57;100.00;102725.47;5115099;28;20026;-47
2022/12/17 20:20:33;;;;;;;276.98;52.75;;;;;;;-5.54;100.00;102721.72;5114952;28;20072;-43
2022/12/17 20:22:59;;;;;;;562.83;157.35;;;;;;;-5.64;100.00;102733.84;5114440;28;20046;-44
2022/12/17 20:25:24;;;;;;;599.53;145.50;;;;;;;-5.69;100.00;102735.78;5115258;28;20024;-48
2022/12/17 20:27:49;;;;;;;533.70;145.10;;;;;;;-5.71;100.00;102733.78;5114638;28;20024;-47
2022/12/17 20:30:15;;;;;;;220.38;40.88;;;;;;;-5.64;100.00;102729.72;5114167;28;20024;-48
2022/12/17 20:32:40;;;;;;;547.72;141.00;;;;;;;-5.75;100.00;102726.56;5114637;28;20027;-46
2022/12/17 20:35:06;;;;;;;218.05;43.40;;;;;;;-5.68;100.00;102730.03;5115024;28;20031;-46
2022/12/17 20:37:31;;;;;;;204.50;42.10;;;;;;;-5.69;100.00;102724.84;5113810;28;20140;-44
2022/12/17 20:39:57;;;;;;;499.48;142.80;;;;;;;-5.78;100.00;102722.06;5114852;28;20059;-43
2022/12/17 20:42:22;;;;;;;494.83;144.02;;;;;;;-5.75;100.00;102724.94;5115072;28;20035;-44
2022/12/17 20:44:47;;;;;;;213.80;42.03;;;;;;;-5.65;100.00;102725.41;5113747;28;20020;-45
2022/12/17 20:47:13;;;;;;;483.33;144.98;;;;;;;-5.70;100.00;102711.34;5114574;28;20028;-43
2022/12/17 20:49:38;;;;;;;228.48;45.75;;;;;;;-5.61;100.00;102719.16;5114529;28;20098;-47
2022/12/17 20:52:03;;;;;;;194.15;38.10;;;;;;;-5.60;100.00;102713.41;5114044;28;20479;-46
2022/12/17 20:54:29;;;;;;;193.38;42.05;;;;;;;-5.58;100.00;102711.09;5114554;28;20106;-47
2022/12/17 20:56:54;;;;;;;481.08;142.52;;;;;;;-5.67;100.00;102706.72;5114126;28;20024;-45
2022/12/17 20:59:19;;;;;;;461.80;139.82;;;;;;;-5.65;100.00;102701.91;5113850;28;20030;-49
2022/12/17 21:01:45;;;;;;;498.23;140.57;;;;;;;-5.70;100.00;102693.78;5114069;28;20036;-47
2022/12/17 21:04:12;;;;;;;491.58;149.80;;;;;;;-5.66;100.00;102700.09;5114234;28;20417;-43
2022/12/17 21:06:43;;;;;;;486.27;143.60;;;;;;;-5.67;100.00;102704.22;5113387;28;20024;-49
2022/12/17 21:09:09;;;;;;;484.33;142.98;;;;;;;-5.65;100.00;102716.97;5114072;28;20032;-44
2022/12/17 21:11:36;;;;;;;476.60;144.15;;;;;;;-5.66;100.00;102716.03;5114032;28;20383;-44
2022/12/17 21:14:07;;;;;;;461.98;139.38;;;;;;;-5.68;100.00;102720.00;5113343;28;20023;-46
2022/12/17 21:16:34;;;;;;;483.35;148.23;;;;;;;-5.67;100.00;102716.78;5113822;28;20383;-43
2022/12/17 21:19:00;;;;;;;459.42;144.55;;;;;;;-5.65;100.00;102717.84;5113877;28;20482;-47
2022/12/17 21:21:28;;;;;;;488.92;146.48;;;;;;;-5.69;100.00;102713.16;5113473;28;20036;-44
2022/12/17 21:23:54;;;;;;;480.05;141.25;;;;;;;-5.71;100.00;102713.69;5113456;28;20482;-48
2022/12/17 21:26:22;;;;;;;200.00;43.15;;;;;;;-5.58;100.00;102726.16;5113156;28;20496;-45
2022/12/17 21:28:50;;;;;;;;;;;;;;;-5.60;100.00;102722.53;5114116;28;20104;-44
2022/12/17 21:31:18;;;;;;;180.35;39.05;;;;;;;-5.63;100.00;102726.50;5113842;28;19912;-43
2022/12/17 21:33:45;;;;;;;202.23;42.13;;;;;;;-5.63;100.00;102725.56;5113058;28;20024;-43
2022/12/17 21:36:10;;;;;;;444.67;133.40;;;;;;;-5.76;100.00;102725.66;5113803;28;20051;-44
2022/12/17 21:38:36;;;;;;;183.20;39.13;;;;;;;-5.67;100.00;102733.44;5113523;28;20089;-45
2022/12/17 21:41:07;;;;;;;424.80;131.48;;;;;;;-5.82;100.00;102732.44;5112094;28;20042;-44
2022/12/17 21:43:35;;;;;;;417.30;131.68;;;;;;;-5.86;100.00;102735.25;5113174;28;20035;-48
2022/12/17 21:46:01;;;;;;;423.17;133.00;;;;;;;-5.95;100.00;102733.41;5113523;28;20356;-43
2022/12/17 21:48:26;;;;;;;204.63;43.65;;;;;;;-5.87;100.00;102736.88;5112692;28;20494;-43
2022/12/17 21:50:51;;;;;;;198.85;37.80;;;;;;;-5.88;100.00;102731.66;5113457;28;20059;-46
2022/12/17 21:53:16;;;;;;;423.95;135.43;;;;;;;-5.96;100.00;102736.63;5113524;28;20064;-44
2022/12/17 21:55:42;;;;;;;212.60;42.45;;;;;;;-5.87;100.00;102743.53;5095812;28;20108;-44
2022/12/17 21:58:07;;;;;;;443.88;139.35;;;;;;;-5.93;100.00;102750.28;5093560;28;20387;-46
2022/12/17 22:00:34;;;;;;;448.38;143.18;;;;;;;-5.92;100.00;102747.06;5093035;28;20131;-43
2022/12/17 22:03:00;;;;;;;461.33;142.70;;;;;;;-5.90;100.00;102741.53;5093021;28;20184;-45
2022/12/17 22:05:25;;;;;;;199.02;43.40;;;;;;;-5.83;100.00;102748.22;5093552;28;20078;-46
2022/12/17 22:07:51;;;;;;;452.35;142.15;;;;;;;-5.93;100.00;102745.25;5093269;28;20140;-43
2022/12/17 22:10:17;;;;;;;448.55;143.63;;;;;;;-5.95;100.00;102756.00;5092676;28;20560;-46
2022/12/17 22:15:26;;;;;;;236.20;44.58;;;;;;;-5.86;100.00;102763.78;5093302;28;20039;-45
2022/12/17 22:17:52;;;;;;;196.98;44.38;;;;;;;-5.87;100.00;102766.13;5093184;28;20029;-45
2022/12/17 22:20:18;;;;;;;236.35;46.78;;;;;;;-5.89;100.00;102768.41;5093477;28;20020;-43
2022/12/17 22:22:44;;;;;;;428.90;142.50;;;;;;;-6.02;100.00;102767.59;5092230;28;20834;-43
2022/12/17 22:25:10;;;;;;;419.65;138.60;;;;;;;-6.07;100.00;102761.09;5093047;28;20078;-44
2022/12/17 22:27:36;;;;;;;419.33;139.13;;;;;;;-6.09;100.00;102762.50;5093086;28;20138;-44
2022/12/17 22:32:59;;;;;;;211.57;44.08;;;;;;;-6.04;100.00;102767.44;5093119;28;20039;-43
2022/12/17 22:35:35;;;;;;;222.20;47.67;;;;;;;-6.06;100.00;102767.94;5092999;28;20020;-44
2022/12/17 22:38:03;;;;;;;420.77;140.85;;;;;;;-6.30;100.00;102759.97;5092508;28;20116;-47
2022/12/17 22:40:29;;;;;;;418.40;140.98;;;;;;;-6.27;100.00;102761.97;5093251;28;20028;-43
2022/12/17 22:45:41;;;;;;;405.83;137.55;;;;;;;-6.36;100.00;102751.66;5091853;28;20559;-45
2022/12/17 22:48:08;;;;;;;423.75;144.20;;;;;;;-6.42;100.00;102755.88;5092950;28;20025;-43
2022/12/17 22:50:34;;;;;;;433.55;147.30;;;;;;;-6.44;100.00;102757.31;5091886;28;20043;-44
2022/12/17 22:52:59;;;;;;;205.18;44.08;;;;;;;-6.36;100.00;102756.69;5092963;28;20391;-45
2022/12/17 22:55:25;;;;;;;380.67;133.07;;;;;;;-6.60;100.00;102756.03;5092956;28;20085;-46
2022/12/17 22:57:50;;;;;;;188.43;43.80;;;;;;;-6.48;100.00;102758.53;5091886;28;20573;-46
2022/12/17 23:00:20;;;;;;;202.13;43.70;;;;;;;-6.47;100.00;102766.94;5092629;28;20103;-46
2022/12/17 23:02:46;;;;;;;193.30;45.38;;;;;;;-6.51;100.00;102763.13;5092312;28;20447;-43
2022/12/17 23:05:11;;;;;;;426.73;145.70;;;;;;;-6.64;100.00;102752.22;5092088;28;20471;-46
2022/12/17 23:07:36;;;;;;;421.20;142.50;;;;;;;-6.68;100.00;102755.94;5092623;28;20039;-44
2022/12/17 23:10:04;;;;;;;232.73;50.28;;;;;;;-6.59;100.00;102761.25;5092816;28;20020;-43
2022/12/17 23:15:12;;;;;;;212.38;46.05;;;;;;;-6.64;100.00;102748.09;5092933;28;20035;-46
2022/12/17 23:17:38;;;;;;;416.10;141.02;;;;;;;-6.74;100.00;102739.22;5092147;28;20020;-45
2022/12/17 23:20:04;;;;;;;393.17;137.00;;;;;;;-6.73;100.00;102729.38;5091974;28;20030;-41
2022/12/17 23:22:29;;;;;;;195.25;42.60;;;;;;;-6.67;100.00;102740.19;5092442;28;20056;-42
2022/12/17 23:24:54;;;;;;;175.20;43.30;;;;;;;-6.69;100.00;102731.56;5092135;28;20047;-47
2022/12/17 23:27:19;;;;;;;371.25;137.10;;;;;;;-6.76;100.00;102735.59;5091829;28;20039;-44
2022/12/17 23:29:45;;;;;;;201.07;40.28;;;;;;;-6.71;100.00;102739.59;5092025;28;20021;-45
2022/12/17 23:32:10;;;;;;;174.90;39.30;;;;;;;-6.73;100.00;102741.91;5092712;28;20170;-43
2022/12/17 23:34:35;;;;;;;182.48;41.17;;;;;;;-6.77;100.00;102744.72;5091655;28;20024;-44
2022/12/17 23:37:01;;;;;;;317.55;120.50;;;;;;;-7.18;100.00;102740.25;5092654;28;20028;-42
2022/12/17 23:39:26;;;;;;;168.75;37.97;;;;;;;-7.01;100.00;102742.44;5092596;28;20444;-46
2022/12/17 23:41:53;;;;;;;324.60;119.00;;;;;;;-7.38;100.00;102733.53;5091347;28;20040;-42
2022/12/17 23:44:19;;;;;;;316.15;116.70;;;;;;;-7.42;100.00;102743.84;5092362;28;20043;-45
2022/12/17 23:46:44;;;;;;;176.82;40.30;;;;;;;-7.27;100.00;102747.44;5092112;28;20455;-46
2022/12/17 23:49:09;;;;;;;166.32;37.78;;;;;;;-7.28;100.00;102735.66;5091588;28;20028;-43
2022/12/17 23:51:35;;;;;;;348.02;126.72;;;;;;;-7.37;100.00;102735.34;5091863;28;20081;-44
2022/12/17 23:54:00;;;;;;;182.48;38.55;;;;;;;-7.30;100.00;102742.03;5091755;28;20459;-43
2022/12/17 23:56:27;;;;;;;351.15;126.93;;;;;;;-7.39;100.00;102756.75;5092244;28;20038;-46
2022/12/17 23:58:54;;;;;;;347.90;128.93;;;;;;;-7.37;100.00;102760.38;5091913;28;20028;-47
